createdAt,value
2019-03-22T00:01:16.714Z,101866.70
2019-03-22T00:03:44.380Z,101859.16
2019-03-22T00:06:12.083Z,101861.08
2019-03-22T00:08:39.745Z,101865.74
2019-03-22T00:11:07.408Z,101862.51
2019-03-22T00:13:35.350Z,101865.02
2019-03-22T00:16:03.004Z,101862.25
2019-03-22T00:18:30.685Z,101858.83
2019-03-22T00:20:58.354Z,101859.75
2019-03-22T00:23:26.027Z,101855.72
2019-03-22T00:25:53.683Z,101860.11
2019-03-22T00:28:21.349Z,101861.50
2019-03-22T00:30:49.083Z,101863.35
2019-03-22T00:33:16.762Z,101860.21
2019-03-22T00:35:44.449Z,101865.70
2019-03-22T00:38:12.156Z,101861.78
2019-03-22T00:40:39.807Z,101863.59
2019-03-22T00:43:07.478Z,101865.30
2019-03-22T00:45:35.144Z,101863.80
2019-03-22T00:48:02.803Z,101861.55
2019-03-22T00:50:30.462Z,101856.38
2019-03-22T00:52:58.393Z,101856.26
2019-03-22T00:55:26.224Z,101846.87
2019-03-22T00:57:53.906Z,101851.45
2019-03-22T01:00:21.700Z,101852.39
2019-03-22T01:02:49.362Z,101851.70
2019-03-22T01:05:17.016Z,101845.27
2019-03-22T01:07:44.670Z,101850.23
2019-03-22T01:10:12.342Z,101849.00
2019-03-22T01:12:40.275Z,101847.66
2019-03-22T01:15:07.970Z,101853.75
2019-03-22T01:17:35.623Z,101848.95
2019-03-22T01:20:03.279Z,101843.97
2019-03-22T01:22:30.937Z,101843.09
2019-03-22T01:24:58.594Z,101840.31
2019-03-22T01:27:26.250Z,101845.28
2019-03-22T01:29:53.911Z,101843.36
2019-03-22T01:32:21.568Z,101845.42
2019-03-22T01:34:49.223Z,101847.44
2019-03-22T01:37:16.999Z,101844.98
2019-03-22T01:39:44.663Z,101838.62
2019-03-22T01:42:12.319Z,101838.09
2019-03-22T01:44:40.026Z,101839.66
2019-03-22T01:47:07.708Z,101840.77
2019-03-22T01:49:35.450Z,101842.84
2019-03-22T01:52:03.107Z,101844.13
2019-03-22T01:54:30.828Z,101841.56
2019-03-22T01:56:58.546Z,101845.20
2019-03-22T01:59:26.213Z,101845.34
2019-03-22T02:01:53.874Z,101843.36
2019-03-22T02:04:21.555Z,101834.13
2019-03-22T02:06:49.218Z,101845.80
2019-03-22T02:09:16.876Z,101845.80
2019-03-22T02:11:44.542Z,101841.73
2019-03-22T02:14:12.233Z,101840.05
2019-03-22T02:16:39.974Z,101840.71
2019-03-22T02:19:07.663Z,101843.93
2019-03-22T02:21:35.326Z,101844.02
2019-03-22T02:24:02.986Z,101838.27
2019-03-22T02:26:30.651Z,101825.55
2019-03-22T02:28:58.342Z,101828.48
2019-03-22T02:31:26.195Z,101831.50
2019-03-22T02:33:53.865Z,101832.11
2019-03-22T02:36:21.562Z,101832.44
2019-03-22T02:38:49.227Z,101834.15
2019-03-22T02:41:16.903Z,101829.92
2019-03-22T02:43:44.563Z,101825.24
2019-03-22T02:46:12.263Z,101826.08
2019-03-22T02:48:39.928Z,101824.09
2019-03-22T02:51:07.588Z,101828.64
2019-03-22T02:53:35.240Z,101827.43
2019-03-22T02:56:02.972Z,101829.61
2019-03-22T02:58:30.852Z,101821.05
2019-03-22T03:00:58.519Z,101822.55
2019-03-22T03:03:26.424Z,101828.62
2019-03-22T03:05:54.213Z,101829.75
2019-03-22T03:08:22.051Z,101823.83
2019-03-22T03:10:49.715Z,101830.75
2019-03-22T03:13:17.359Z,101829.41
2019-03-22T03:15:45.051Z,101829.97
2019-03-22T03:18:12.799Z,101837.92
2019-03-22T03:20:40.488Z,101827.63
2019-03-22T03:23:08.141Z,101824.34
2019-03-22T03:25:35.802Z,101833.02
2019-03-22T03:28:03.465Z,101830.53
2019-03-22T03:30:31.127Z,101831.16
2019-03-22T03:32:58.787Z,101829.72
2019-03-22T03:35:26.473Z,101830.06
2019-03-22T03:37:54.144Z,101836.73
2019-03-22T03:40:21.867Z,101829.13
2019-03-22T03:42:49.527Z,101836.33
2019-03-22T03:45:17.247Z,101844.13
2019-03-22T03:47:45.169Z,101829.08
2019-03-22T03:50:12.879Z,101832.56
2019-03-22T03:52:40.557Z,101836.03
2019-03-22T03:55:08.235Z,101838.58
2019-03-22T03:57:35.921Z,101837.73
2019-03-22T04:00:03.580Z,101839.30
2019-03-22T04:02:31.239Z,101839.69
2019-03-22T04:04:58.896Z,101837.88
2019-03-22T04:07:26.567Z,101843.30
2019-03-22T04:09:54.269Z,101850.77
2019-03-22T04:12:21.954Z,101844.73
2019-03-22T04:14:49.590Z,101840.29
2019-03-22T04:17:17.257Z,101835.68
2019-03-22T04:19:44.912Z,101836.62
2019-03-22T04:22:12.633Z,101842.26
2019-03-22T04:24:40.402Z,101843.61
2019-03-22T04:27:08.048Z,101840.59
2019-03-22T04:29:35.702Z,101840.93
2019-03-22T04:32:03.366Z,101842.50
2019-03-22T04:34:31.032Z,101840.55
2019-03-22T04:36:58.696Z,101846.55
2019-03-22T04:39:26.613Z,101835.23
2019-03-22T04:41:54.263Z,101825.86
2019-03-22T04:44:21.959Z,101827.97
2019-03-22T04:46:49.622Z,101836.02
2019-03-22T04:49:17.278Z,101828.43
2019-03-22T04:51:44.946Z,101833.53
2019-03-22T04:54:12.622Z,101838.66
2019-03-22T04:56:40.758Z,101834.05
2019-03-22T04:59:18.492Z,101841.73
2019-03-22T05:01:37.911Z,101850.48
2019-03-22T05:04:05.584Z,101854.39
2019-03-22T05:06:33.248Z,101860.70
2019-03-22T05:09:00.928Z,101860.11
2019-03-22T05:11:29.103Z,101865.77
2019-03-22T05:13:56.818Z,101865.84
2019-03-22T05:16:24.490Z,101870.36
2019-03-22T05:18:52.151Z,101876.38
2019-03-22T05:21:19.844Z,101873.22
2019-03-22T05:23:47.539Z,101873.52
2019-03-22T05:26:15.259Z,101876.08
2019-03-22T05:28:43.092Z,101871.48
2019-03-22T05:31:10.743Z,101873.80
2019-03-22T05:33:38.401Z,101872.62
2019-03-22T05:36:06.075Z,101884.74
2019-03-22T05:38:33.727Z,101870.22
2019-03-22T05:41:01.386Z,101866.66
2019-03-22T05:43:29.052Z,101865.85
2019-03-22T05:45:56.711Z,101874.41
2019-03-22T05:48:24.378Z,101863.23
2019-03-22T05:50:52.151Z,101871.33
2019-03-22T05:53:19.830Z,101867.34
2019-03-22T05:55:47.675Z,101871.88
2019-03-22T05:58:15.475Z,101870.67
2019-03-22T06:00:43.140Z,101877.89
2019-03-22T06:03:10.797Z,101877.13
2019-03-22T06:05:38.454Z,101876.90
2019-03-22T06:08:06.106Z,101880.87
2019-03-22T06:10:33.782Z,101887.69
2019-03-22T06:13:01.448Z,101891.02
2019-03-22T06:15:29.098Z,101901.16
2019-03-22T06:17:56.766Z,101895.19
2019-03-22T06:20:24.423Z,101887.87
2019-03-22T06:22:52.083Z,101889.03
2019-03-22T06:25:19.742Z,101885.13
2019-03-22T06:27:47.416Z,101896.20
2019-03-22T06:30:15.078Z,101903.45
2019-03-22T06:32:42.746Z,101902.09
2019-03-22T06:35:10.403Z,101900.66
2019-03-22T06:37:38.109Z,101907.57
2019-03-22T06:40:06.062Z,101911.80
2019-03-22T06:42:33.806Z,101924.28
2019-03-22T06:45:01.484Z,101922.63
2019-03-22T06:47:29.145Z,101923.02
2019-03-22T06:49:56.811Z,101923.34
2019-03-22T06:52:24.464Z,101922.03
2019-03-22T06:54:52.127Z,101918.63
2019-03-22T06:57:19.782Z,101916.70
2019-03-22T06:59:47.451Z,101906.97
2019-03-22T07:02:15.119Z,101907.95
2019-03-22T07:04:42.784Z,101913.61
2019-03-22T07:07:10.452Z,101917.67
2019-03-22T07:09:38.123Z,101926.61
2019-03-22T07:12:05.788Z,101929.83
2019-03-22T07:14:33.451Z,101920.31
2019-03-22T07:17:01.151Z,101916.23
2019-03-22T07:19:28.831Z,101919.78
2019-03-22T07:21:56.516Z,101911.75
2019-03-22T07:24:24.177Z,101915.71
2019-03-22T07:26:51.846Z,101921.85
2019-03-22T07:29:19.503Z,101918.24
2019-03-22T07:31:47.252Z,101912.19
2019-03-22T07:34:14.928Z,101917.87
2019-03-22T07:36:42.592Z,101923.11
2019-03-22T07:39:10.352Z,101923.66
2019-03-22T07:41:38.017Z,101927.56
2019-03-22T07:44:05.676Z,101923.05
2019-03-22T07:46:33.334Z,101913.12
2019-03-22T07:49:01.008Z,101910.63
2019-03-22T07:51:28.691Z,101912.91
2019-03-22T07:53:56.360Z,101908.20
2019-03-22T07:56:24.020Z,101906.30
2019-03-22T07:58:51.682Z,101906.30
2019-03-22T08:01:19.351Z,101898.91
2019-03-22T08:03:47.016Z,101898.08
2019-03-22T08:06:14.689Z,101892.85
2019-03-22T08:08:42.425Z,101899.11
2019-03-22T08:11:10.095Z,101898.48
2019-03-22T08:13:37.750Z,101896.22
2019-03-22T08:16:05.423Z,101900.38
2019-03-22T08:18:33.105Z,101901.19
2019-03-22T08:21:00.794Z,101894.32
2019-03-22T08:23:28.525Z,101893.93
2019-03-22T08:25:56.213Z,101896.98
2019-03-22T08:28:23.887Z,101903.63
2019-03-22T08:30:51.581Z,101901.61
2019-03-22T08:33:19.223Z,101909.92
2019-03-22T08:35:46.895Z,101902.34
2019-03-22T08:38:17.364Z,101905.25
2019-03-22T08:40:43.930Z,101912.36
2019-03-22T08:43:11.845Z,101909.28
2019-03-22T08:45:39.547Z,101916.27
2019-03-22T08:48:07.261Z,101908.83
2019-03-22T08:50:34.927Z,101911.45
2019-03-22T08:53:03.348Z,101907.56
2019-03-22T08:55:31.089Z,101911.39
2019-03-22T08:57:58.849Z,101899.72
2019-03-22T09:00:38.700Z,101895.08
2019-03-22T09:02:55.863Z,101902.81
2019-03-22T09:05:23.617Z,101890.86
2019-03-22T09:07:51.292Z,101902.87
2019-03-22T09:10:19.039Z,101902.19
2019-03-22T09:12:46.702Z,101892.11
2019-03-22T09:15:14.363Z,101897.35
2019-03-22T09:17:42.020Z,101896.48
2019-03-22T09:20:09.718Z,101902.36
2019-03-22T09:22:37.400Z,101895.59
2019-03-22T09:25:05.085Z,101902.05
2019-03-22T09:27:32.940Z,101899.67
2019-03-22T09:30:00.658Z,101905.22
2019-03-22T09:32:28.328Z,101905.14
2019-03-22T09:34:55.992Z,101896.83
2019-03-22T09:37:23.678Z,101897.66
2019-03-22T09:39:51.380Z,101890.86
2019-03-22T09:42:19.384Z,101886.72
2019-03-22T09:44:47.145Z,101881.77
2019-03-22T09:47:16.517Z,101879.05
2019-03-22T09:49:44.209Z,101880.10
2019-03-22T09:52:11.964Z,101869.77
2019-03-22T09:54:39.828Z,101866.77
2019-03-22T09:57:07.603Z,101864.88
2019-03-22T09:59:35.256Z,101856.61
2019-03-22T10:02:02.960Z,101856.87
2019-03-22T10:04:30.822Z,101854.23
2019-03-22T10:06:58.515Z,101850.22
2019-03-22T10:09:26.175Z,101849.41
2019-03-22T10:11:53.852Z,101852.59
2019-03-22T10:14:21.624Z,101847.64
2019-03-22T10:16:49.399Z,101833.19
2019-03-22T10:19:17.073Z,101837.46
2019-03-22T10:21:44.845Z,101833.48
2019-03-22T10:24:12.687Z,101824.80
2019-03-22T10:26:40.444Z,101817.01
2019-03-22T10:29:08.152Z,101807.30
2019-03-22T10:31:37.517Z,101811.11
2019-03-22T10:34:05.260Z,101814.14
2019-03-22T10:36:33.043Z,101819.36
2019-03-22T10:39:00.739Z,101806.78
2019-03-22T10:41:28.497Z,101796.28
2019-03-22T10:43:56.442Z,101805.23
2019-03-22T10:46:24.252Z,101797.02
2019-03-22T10:48:51.999Z,101803.63
2019-03-22T10:51:21.495Z,101806.70
2019-03-22T10:53:49.086Z,101802.05
2019-03-22T10:56:17.071Z,101800.97
2019-03-22T10:58:45.155Z,101785.69
2019-03-22T11:01:12.892Z,101782.69
2019-03-22T11:03:40.559Z,101783.16
2019-03-22T11:06:08.224Z,101773.95
2019-03-22T11:08:35.939Z,101764.12
2019-03-22T11:11:03.692Z,101772.82
2019-03-22T11:13:31.383Z,101769.17
2019-03-22T11:15:59.043Z,101770.16
2019-03-22T11:18:36.831Z,101770.01
2019-03-22T11:21:04.761Z,101766.95
2019-03-22T11:23:25.439Z,101754.48
2019-03-22T11:25:53.107Z,101746.94
2019-03-22T11:28:20.767Z,101745.04
2019-03-22T11:30:48.428Z,101745.67
2019-03-22T11:33:16.100Z,101747.66
2019-03-22T11:35:43.815Z,101745.73
2019-03-22T11:38:11.562Z,101745.07
2019-03-22T11:40:39.223Z,101738.13
2019-03-22T11:43:08.869Z,101724.47
2019-03-22T11:45:36.271Z,101723.78
2019-03-22T11:48:04.001Z,101733.25
2019-03-22T11:50:31.659Z,101730.93
2019-03-22T11:52:59.315Z,101729.06
2019-03-22T11:55:26.982Z,101727.00
2019-03-22T11:57:54.682Z,101724.47
2019-03-22T12:00:22.484Z,101710.82
2019-03-22T12:02:50.301Z,101704.81
2019-03-22T12:05:18.000Z,101704.57
2019-03-22T12:07:45.655Z,101707.77
2019-03-22T12:10:13.324Z,101706.59
2019-03-22T12:12:41.024Z,101695.09
2019-03-22T12:15:08.693Z,101695.09
2019-03-22T12:17:36.388Z,101686.61
2019-03-22T12:20:04.079Z,101681.32
2019-03-22T12:22:31.778Z,101679.11
2019-03-22T12:24:59.483Z,101671.33
2019-03-22T12:27:36.238Z,101678.57
2019-03-22T12:29:56.529Z,101672.80
2019-03-22T12:32:31.967Z,101665.84
2019-03-22T12:34:53.560Z,101657.86
2019-03-22T12:37:21.223Z,101647.77
2019-03-22T12:39:48.940Z,101648.91
2019-03-22T12:42:16.630Z,101647.23
2019-03-22T12:44:44.285Z,101629.44
2019-03-22T12:47:12.012Z,101630.44
2019-03-22T12:49:39.683Z,101636.08
2019-03-22T12:52:07.352Z,101623.77
2019-03-22T12:54:35.011Z,101623.34
2019-03-22T12:57:02.676Z,101624.11
2019-03-22T12:59:30.341Z,101627.47
2019-03-22T13:01:58.019Z,101626.30
2019-03-22T13:04:25.675Z,101625.13
2019-03-22T13:06:53.428Z,101619.66
2019-03-22T13:09:21.126Z,101619.42
2019-03-22T13:11:48.863Z,101620.55
2019-03-22T13:14:16.569Z,101614.05
2019-03-22T13:16:44.246Z,101612.38
2019-03-22T13:19:11.918Z,101612.20
2019-03-22T13:21:39.694Z,101613.81
2019-03-22T13:24:07.355Z,101610.01
2019-03-22T13:26:35.020Z,101599.91
2019-03-22T13:29:02.715Z,101592.57
2019-03-22T13:31:30.460Z,101584.43
2019-03-22T13:33:58.119Z,101580.91
2019-03-22T13:36:25.779Z,101576.75
2019-03-22T13:38:53.443Z,101572.72
2019-03-22T13:41:21.223Z,101572.26
2019-03-22T13:43:48.987Z,101561.39
2019-03-22T13:46:16.650Z,101562.97
2019-03-22T13:48:44.313Z,101556.16
2019-03-22T13:51:12.056Z,101559.70
2019-03-22T13:53:39.802Z,101554.05
2019-03-22T13:56:07.444Z,101553.80
2019-03-22T13:58:35.110Z,101555.69
2019-03-22T14:01:02.807Z,101547.42
2019-03-22T14:03:30.494Z,101544.03
2019-03-22T14:05:58.240Z,101550.24
2019-03-22T14:08:27.051Z,101537.66
2019-03-22T14:10:54.844Z,101535.02
2019-03-22T14:13:22.511Z,101526.23
2019-03-22T14:15:50.166Z,101529.27
2019-03-22T14:18:17.823Z,101521.20
2019-03-22T14:20:45.491Z,101519.27
2019-03-22T14:23:13.168Z,101514.74
2019-03-22T14:25:40.879Z,101520.78
2019-03-22T14:28:08.690Z,101512.46
2019-03-22T14:30:36.399Z,101509.67
2019-03-22T14:33:12.862Z,101505.57
2019-03-22T14:35:33.463Z,101496.88
2019-03-22T14:38:01.110Z,101501.31
2019-03-22T14:40:28.805Z,101497.41
2019-03-22T14:42:56.554Z,101494.83
2019-03-22T14:45:24.212Z,101491.87
2019-03-22T14:47:51.871Z,101487.86
2019-03-22T14:50:19.524Z,101486.12
2019-03-22T14:52:47.179Z,101481.00
2019-03-22T14:55:14.846Z,101478.16
2019-03-22T14:57:48.723Z,101472.41
2019-03-22T15:00:11.961Z,101472.44
2019-03-22T15:02:39.730Z,101465.70
2019-03-22T15:05:07.547Z,101456.25
2019-03-22T15:07:35.296Z,101467.16
2019-03-22T15:10:02.956Z,101459.11
2019-03-22T15:12:30.612Z,101457.06
2019-03-22T15:15:18.127Z,101452.94
2019-03-22T15:17:57.663Z,101450.36
2019-03-22T15:20:30.591Z,101452.67
2019-03-22T15:23:08.450Z,101449.09
2019-03-22T15:25:56.084Z,101441.38
2019-03-22T15:28:43.617Z,101440.95
2019-03-22T15:31:16.526Z,101439.33
2019-03-22T15:33:57.632Z,101446.22
2019-03-22T15:36:48.140Z,101441.02
2019-03-22T15:39:21.375Z,101443.03
2019-03-22T15:41:49.387Z,101444.61
2019-03-22T15:44:17.061Z,101435.61
2019-03-22T15:46:44.783Z,101437.25
2019-03-22T15:49:12.739Z,101431.08
2019-03-22T15:51:40.414Z,101437.23
2019-03-22T15:54:08.085Z,101431.53
2019-03-22T15:56:35.745Z,101433.02
2019-03-22T15:59:03.401Z,101432.88
2019-03-22T16:01:31.527Z,101430.67
2019-03-22T16:03:59.188Z,101428.72
2019-03-22T16:06:26.955Z,101422.84
2019-03-22T16:08:54.606Z,101431.53
2019-03-22T16:11:22.301Z,101421.24
2019-03-22T16:13:49.969Z,101419.16
2019-03-22T16:16:17.628Z,101425.50
2019-03-22T16:18:45.291Z,101427.41
2019-03-22T16:21:12.963Z,101425.77
2019-03-22T16:23:40.626Z,101428.81
2019-03-22T16:26:08.306Z,101425.46
2019-03-22T16:28:36.022Z,101421.33
2019-03-22T16:31:03.700Z,101423.95
2019-03-22T16:33:31.367Z,101423.23
2019-03-22T16:35:59.029Z,101429.84
2019-03-22T16:38:26.675Z,101436.55
2019-03-22T16:40:54.338Z,101428.51
2019-03-22T16:43:21.986Z,101429.34
2019-03-22T16:45:49.639Z,101437.80
2019-03-22T16:48:17.302Z,101430.41
2019-03-22T16:50:45.380Z,101430.95
2019-03-22T16:53:13.250Z,101433.06
2019-03-22T16:55:40.912Z,101427.90
2019-03-22T16:58:08.824Z,101431.92
2019-03-22T17:00:36.480Z,101434.89
2019-03-22T17:03:04.189Z,101437.97
2019-03-22T17:05:31.850Z,101438.64
2019-03-22T17:07:59.498Z,101441.15
2019-03-22T17:10:27.246Z,101437.23
2019-03-22T17:12:54.908Z,101438.66
2019-03-22T17:15:22.566Z,101433.92
2019-03-22T17:17:50.234Z,101434.35
2019-03-22T17:20:18.314Z,101435.14
2019-03-22T17:22:46.339Z,101432.18
2019-03-22T17:25:13.993Z,101436.55
2019-03-22T17:27:41.667Z,101437.26
2019-03-22T17:30:09.348Z,101444.20
2019-03-22T17:32:37.007Z,101436.02
2019-03-22T17:35:04.713Z,101436.44
2019-03-22T17:37:32.458Z,101442.40
2019-03-22T17:40:00.355Z,101443.45
2019-03-22T17:42:28.022Z,101443.73
2019-03-22T17:44:55.677Z,101437.22
2019-03-22T17:47:23.335Z,101438.71
2019-03-22T17:49:50.994Z,101440.28
2019-03-22T17:52:18.700Z,101434.66
2019-03-22T17:54:46.367Z,101434.66
2019-03-22T17:57:18.676Z,101442.88
2019-03-22T17:59:43.456Z,101439.78
2019-03-22T18:02:11.148Z,101443.86
2019-03-22T18:04:38.838Z,101445.27
2019-03-22T18:07:06.577Z,101441.40
2019-03-22T18:09:34.211Z,101444.98
2019-03-22T18:12:01.871Z,101449.20
2019-03-22T18:14:29.610Z,101450.77
2019-03-22T18:16:57.272Z,101453.30
2019-03-22T18:19:24.975Z,101440.91
2019-03-22T18:21:54.513Z,101451.08
2019-03-22T18:24:22.019Z,101454.64
2019-03-22T18:26:49.670Z,101458.14
2019-03-22T18:29:17.346Z,101453.63
2019-03-22T18:31:45.017Z,101459.20
2019-03-22T18:34:12.671Z,101461.54
2019-03-22T18:36:40.323Z,101465.59
2019-03-22T18:39:07.976Z,101461.48
2019-03-22T18:41:35.622Z,101472.20
2019-03-22T18:44:03.290Z,101471.66
2019-03-22T18:46:30.950Z,101470.05
2019-03-22T18:48:58.767Z,101472.09
2019-03-22T18:51:26.584Z,101467.73
2019-03-22T18:53:54.322Z,101472.06
2019-03-22T18:56:21.991Z,101471.31
2019-03-22T18:58:49.664Z,101465.62
2019-03-22T19:01:17.327Z,101470.45
2019-03-22T19:03:45.103Z,101467.13
2019-03-22T19:06:12.851Z,101469.21
2019-03-22T19:08:40.622Z,101470.94
2019-03-22T19:11:08.291Z,101463.92
2019-03-22T19:13:35.955Z,101470.98
2019-03-22T19:16:03.662Z,101467.56
2019-03-22T19:18:32.773Z,101470.34
2019-03-22T19:21:00.690Z,101469.21
2019-03-22T19:23:28.520Z,101465.21
2019-03-22T19:25:56.171Z,101466.41
2019-03-22T19:28:23.829Z,101469.69
2019-03-22T19:30:51.490Z,101462.36
2019-03-22T19:33:19.153Z,101465.55
2019-03-22T19:35:46.849Z,101462.38
2019-03-22T19:38:14.567Z,101458.85
2019-03-22T19:40:42.219Z,101460.25
2019-03-22T19:43:09.879Z,101458.52
2019-03-22T19:45:37.531Z,101449.52
2019-03-22T19:48:05.183Z,101453.08
2019-03-22T19:50:32.930Z,101454.30
2019-03-22T19:53:00.608Z,101450.19
2019-03-22T19:55:28.318Z,101447.63
2019-03-22T19:57:56.146Z,101448.94
2019-03-22T20:00:23.807Z,101450.45
2019-03-22T20:02:51.460Z,101450.45
2019-03-22T20:05:19.341Z,101450.96
2019-03-22T20:07:47.102Z,101441.40
2019-03-22T20:10:14.815Z,101441.40
2019-03-22T20:12:42.510Z,101441.39
2019-03-22T20:15:10.170Z,101428.36
2019-03-22T20:17:37.821Z,101434.70
2019-03-22T20:20:05.486Z,101435.56
2019-03-22T20:22:33.144Z,101433.17
2019-03-22T20:25:00.978Z,101441.41
2019-03-22T20:27:28.862Z,101431.62
2019-03-22T20:29:56.519Z,101432.50
2019-03-22T20:32:24.172Z,101424.38
2019-03-22T20:34:51.837Z,101432.03
2019-03-22T20:37:19.661Z,101431.47
2019-03-22T20:39:47.433Z,101432.30
2019-03-22T20:42:15.107Z,101424.91
2019-03-22T20:44:42.906Z,101422.15
2019-03-22T20:47:10.567Z,101423.09
2019-03-22T20:49:38.223Z,101419.54
2019-03-22T20:52:05.877Z,101415.22
2019-03-22T20:54:33.550Z,101419.59
2019-03-22T20:57:01.218Z,101420.40
2019-03-22T20:59:28.949Z,101412.82
2019-03-22T21:01:56.611Z,101410.72
2019-03-22T21:04:24.280Z,101409.97
2019-03-22T21:06:51.927Z,101411.77
2019-03-22T21:09:19.584Z,101406.11
2019-03-22T21:11:47.252Z,101411.85
2019-03-22T21:14:14.912Z,101406.67
2019-03-22T21:16:42.598Z,101408.80
2019-03-22T21:19:10.254Z,101408.80
2019-03-22T21:21:37.910Z,101404.03
2019-03-22T21:24:05.671Z,101402.95
2019-03-22T21:26:33.437Z,101404.95
2019-03-22T21:29:01.150Z,101405.28
2019-03-22T21:31:28.893Z,101404.79
2019-03-22T21:33:56.616Z,101406.14
2019-03-22T21:36:24.365Z,101401.23
2019-03-22T21:38:52.117Z,101399.31
2019-03-22T21:41:20.371Z,101400.26
2019-03-22T21:43:48.103Z,101399.47
2019-03-22T21:46:15.773Z,101395.31
2019-03-22T21:48:43.423Z,101395.72
2019-03-22T21:51:11.088Z,101392.91
2019-03-22T21:53:38.839Z,101403.66
2019-03-22T21:56:06.845Z,101401.84
2019-03-22T21:58:34.743Z,101396.19
2019-03-22T22:01:02.605Z,101393.77
2019-03-22T22:03:30.267Z,101380.72
2019-03-22T22:05:57.923Z,101391.69
2019-03-22T22:08:25.571Z,101401.70
2019-03-22T22:10:59.634Z,101405.61
2019-03-22T22:13:22.682Z,101404.45
2019-03-22T22:15:50.418Z,101400.91
2019-03-22T22:18:18.067Z,101396.91
2019-03-22T22:20:46.033Z,101403.16
2019-03-22T22:23:13.724Z,101398.31
2019-03-22T22:25:41.432Z,101400.44
2019-03-22T22:28:09.142Z,101392.55
2019-03-22T22:30:36.794Z,101395.84
2019-03-22T22:33:04.447Z,101399.06
2019-03-22T22:35:32.103Z,101400.61
2019-03-22T22:37:59.764Z,101397.45
2019-03-22T22:40:27.499Z,101402.79
2019-03-22T22:42:55.159Z,101397.48
2019-03-22T22:45:22.818Z,101393.86
2019-03-22T22:47:50.481Z,101393.36
2019-03-22T22:50:18.143Z,101395.95
2019-03-22T22:52:45.878Z,101392.23
2019-03-22T22:55:13.543Z,101391.12
2019-03-22T22:57:41.331Z,101393.77
2019-03-22T23:00:08.984Z,101398.12
2019-03-22T23:02:36.646Z,101395.15
2019-03-22T23:05:04.305Z,101394.00
2019-03-22T23:07:31.982Z,101387.84
2019-03-22T23:09:59.633Z,101388.06
2019-03-22T23:12:27.696Z,101387.19
2019-03-22T23:14:55.508Z,101377.08
2019-03-22T23:17:23.177Z,101382.03
2019-03-22T23:19:50.840Z,101378.70
2019-03-22T23:22:18.499Z,101381.64
2019-03-22T23:24:46.389Z,101385.64
2019-03-22T23:27:14.139Z,101376.55
2019-03-22T23:29:41.799Z,101376.55
2019-03-22T23:32:09.498Z,101374.59
2019-03-22T23:34:38.182Z,101379.66
2019-03-22T23:37:07.227Z,101366.36
2019-03-22T23:39:35.079Z,101365.00
2019-03-22T23:42:02.750Z,101365.46
2019-03-22T23:44:30.477Z,101363.05
2019-03-22T23:46:58.146Z,101360.05
2019-03-22T23:49:25.884Z,101349.60
2019-03-22T23:51:53.825Z,101355.91
2019-03-22T23:54:21.500Z,101357.70
2019-03-22T23:56:49.162Z,101357.23
2019-03-22T23:59:16.902Z,101360.14
